createdAt,value
2018-06-18T00:00:01.368Z,2.80
2018-06-18T00:02:30.412Z,2.70
2018-06-18T00:04:59.534Z,3.10
2018-06-18T00:07:28.583Z,3.17
2018-06-18T00:09:57.752Z,2.65
2018-06-18T00:12:26.859Z,2.40
2018-06-18T00:14:55.939Z,3.23
2018-06-18T00:17:25.052Z,2.60
2018-06-18T00:19:54.162Z,2.43
2018-06-18T00:22:23.258Z,2.92
2018-06-18T00:24:52.359Z,3.03
2018-06-18T00:27:21.544Z,2.80
2018-06-18T00:29:50.721Z,2.80
2018-06-18T00:32:19.812Z,2.23
2018-06-18T00:34:49.000Z,2.50
2018-06-18T00:37:18.153Z,2.90
2018-06-18T00:39:47.263Z,2.40
2018-06-18T00:42:16.426Z,2.65
2018-06-18T00:44:45.554Z,2.70
2018-06-18T00:47:14.781Z,2.87
2018-06-18T00:49:43.889Z,2.73
2018-06-18T00:52:13.004Z,2.17
2018-06-18T00:54:42.141Z,2.40
2018-06-18T00:57:11.293Z,2.75
2018-06-18T00:59:40.412Z,2.37
2018-06-18T01:02:09.499Z,2.80
2018-06-18T01:04:38.581Z,2.70
2018-06-18T01:07:07.699Z,3.57
2018-06-18T01:09:36.820Z,3.47
2018-06-18T01:12:05.973Z,3.20
2018-06-18T01:14:35.095Z,3.47
2018-06-18T01:17:04.754Z,3.37
2018-06-18T01:19:33.823Z,3.00
2018-06-18T01:22:02.946Z,3.80
2018-06-18T01:24:39.405Z,3.30
2018-06-18T01:27:08.528Z,3.10
2018-06-18T01:29:37.620Z,3.47
2018-06-18T01:32:06.821Z,2.97
2018-06-18T01:34:36.005Z,3.30
2018-06-18T01:37:05.125Z,3.13
2018-06-18T01:39:34.267Z,3.43
2018-06-18T01:42:03.472Z,3.67
2018-06-18T01:44:33.305Z,3.58
2018-06-18T01:47:02.912Z,3.50
2018-06-18T01:49:32.085Z,3.45
2018-06-18T01:52:01.511Z,3.20
2018-06-18T01:54:30.747Z,2.87
2018-06-18T01:56:59.897Z,2.73
2018-06-18T01:59:29.946Z,2.70
2018-06-18T02:01:59.085Z,3.37
2018-06-18T02:04:28.459Z,3.03
2018-06-18T02:06:58.502Z,3.20
2018-06-18T02:09:27.701Z,3.00
2018-06-18T02:11:56.848Z,2.83
2018-06-18T02:14:26.021Z,2.73
2018-06-18T02:16:55.249Z,2.27
2018-06-18T02:19:24.445Z,2.67
2018-06-18T02:21:53.932Z,3.20
2018-06-18T02:24:23.072Z,2.57
2018-06-18T02:26:58.265Z,2.90
2018-06-18T02:29:33.077Z,3.00
2018-06-18T02:32:07.414Z,2.70
2018-06-18T02:34:41.713Z,2.90
2018-06-18T02:37:16.246Z,2.90
2018-06-18T02:39:50.776Z,3.00
2018-06-18T02:42:19.940Z,2.87
2018-06-18T02:44:49.849Z,2.90
2018-06-18T02:47:18.980Z,2.60
2018-06-18T02:49:48.086Z,3.10
2018-06-18T02:52:17.189Z,2.73
2018-06-18T02:54:46.391Z,3.13
2018-06-18T02:57:16.305Z,2.98
2018-06-18T02:59:45.468Z,2.65
2018-06-18T03:02:14.578Z,2.87
2018-06-18T03:04:43.694Z,3.40
2018-06-18T03:07:12.893Z,3.00
2018-06-18T03:09:42.058Z,3.30
2018-06-18T03:12:11.178Z,3.33
2018-06-18T03:14:40.305Z,2.92
2018-06-18T03:17:09.482Z,2.83
2018-06-18T03:19:43.792Z,3.10
2018-06-18T03:22:18.177Z,3.03
2018-06-18T03:24:52.572Z,3.60
2018-06-18T03:27:27.196Z,3.40
2018-06-18T03:29:57.209Z,3.60
2018-06-18T03:32:26.884Z,3.73
2018-06-18T03:34:56.021Z,3.50
2018-06-18T03:37:25.175Z,3.17
2018-06-18T03:39:54.272Z,3.60
2018-06-18T03:42:23.389Z,3.15
2018-06-18T03:44:58.985Z,3.23
2018-06-18T03:47:29.730Z,3.60
2018-06-18T03:49:58.813Z,3.33
2018-06-18T03:52:27.937Z,3.90
2018-06-18T03:54:59.474Z,3.22
2018-06-18T03:57:28.798Z,3.30
2018-06-18T03:59:57.898Z,3.37
2018-06-18T04:02:38.519Z,3.37
2018-06-18T04:05:12.883Z,3.70
2018-06-18T04:07:47.307Z,3.33
2018-06-18T04:10:21.866Z,3.53
2018-06-18T04:12:50.981Z,3.70
2018-06-18T04:15:20.175Z,3.92
2018-06-18T04:17:49.308Z,3.40
2018-06-18T04:20:18.410Z,3.17
2018-06-18T04:22:47.607Z,3.80
2018-06-18T04:25:16.720Z,4.00
2018-06-18T04:27:45.895Z,3.80
2018-06-18T04:30:15.033Z,3.80
2018-06-18T04:32:44.289Z,3.87
2018-06-18T04:35:13.361Z,4.10
2018-06-18T04:37:42.648Z,3.80
2018-06-18T04:40:11.797Z,3.60
2018-06-18T04:42:46.205Z,3.60
2018-06-18T04:45:20.701Z,3.50
2018-06-18T04:47:55.148Z,4.40
2018-06-18T04:50:29.321Z,3.97
2018-06-18T04:52:59.152Z,4.50
2018-06-18T04:55:28.249Z,3.83
2018-06-18T04:57:58.001Z,3.70
2018-06-18T05:00:36.781Z,3.80
2018-06-18T05:03:05.989Z,3.53
2018-06-18T05:05:35.547Z,3.90
2018-06-18T05:08:24.444Z,3.40
2018-06-18T05:10:53.534Z,3.57
2018-06-18T05:13:22.665Z,3.80
2018-06-18T05:15:53.414Z,3.60
2018-06-18T05:18:22.524Z,3.72
2018-06-18T05:20:51.627Z,3.65
2018-06-18T05:23:20.683Z,3.00
2018-06-18T05:25:54.865Z,3.63
2018-06-18T05:28:23.923Z,3.65
2018-06-18T05:30:53.124Z,3.80
2018-06-18T05:33:22.242Z,3.60
2018-06-18T05:35:51.410Z,3.27
2018-06-18T05:38:35.164Z,3.50
2018-06-18T05:41:05.040Z,3.40
2018-06-18T05:43:34.241Z,2.77
2018-06-18T05:46:03.435Z,4.35
2018-06-18T05:48:32.505Z,3.53
2018-06-18T05:51:01.614Z,3.50
2018-06-18T05:53:30.702Z,3.90
2018-06-18T05:55:59.874Z,3.30
2018-06-18T05:58:29.055Z,3.70
2018-06-18T06:00:58.170Z,3.50
2018-06-18T06:03:27.261Z,3.83
2018-06-18T06:05:56.427Z,3.47
2018-06-18T06:08:26.642Z,3.43
2018-06-18T06:10:55.812Z,3.00
2018-06-18T06:13:24.895Z,3.30
2018-06-18T06:15:54.137Z,3.30
2018-06-18T06:18:23.282Z,5.33
2018-06-18T06:20:55.397Z,3.40
2018-06-18T06:23:24.509Z,3.45
2018-06-18T06:25:54.226Z,3.33
2018-06-18T06:28:24.011Z,3.50
2018-06-18T06:30:53.225Z,3.13
2018-06-18T06:33:23.521Z,3.50
2018-06-18T06:35:53.246Z,3.50
2018-06-18T06:38:22.423Z,3.10
2018-06-18T06:40:51.967Z,3.50
2018-06-18T06:43:22.067Z,3.10
2018-06-18T06:45:51.304Z,3.10
2018-06-18T06:48:20.474Z,2.70
2018-06-18T06:50:49.663Z,2.70
2018-06-18T06:53:19.209Z,3.00
2018-06-18T06:55:48.343Z,2.50
2018-06-18T06:58:17.562Z,3.27
2018-06-18T07:00:48.099Z,2.30
2018-06-18T07:03:17.225Z,2.77
2018-06-18T07:05:46.450Z,2.73
2018-06-18T07:08:16.617Z,3.30
2018-06-18T07:10:45.799Z,3.33
2018-06-18T07:13:15.594Z,2.98
2018-06-18T07:15:45.595Z,3.07
2018-06-18T07:18:15.336Z,2.80
2018-06-18T07:20:44.504Z,2.80
2018-06-18T07:23:13.910Z,2.50
2018-06-18T07:25:43.014Z,2.90
2018-06-18T07:28:12.206Z,2.80
2018-06-18T07:30:41.562Z,2.80
2018-06-18T07:33:14.698Z,2.37
2018-06-18T07:35:43.997Z,2.70
2018-06-18T07:38:13.337Z,2.73
2018-06-18T07:40:42.537Z,2.90
2018-06-18T07:43:12.545Z,3.35
2018-06-18T07:45:42.618Z,2.80
2018-06-18T07:48:13.011Z,2.87
2018-06-18T07:50:42.866Z,3.07
2018-06-18T07:53:16.096Z,3.00
2018-06-18T07:55:45.671Z,3.50
2018-06-18T07:58:14.758Z,2.72
2018-06-18T08:00:44.934Z,3.50
2018-06-18T08:03:14.880Z,2.37
2018-06-18T08:05:43.988Z,3.03
2018-06-18T08:08:13.237Z,3.75
2018-06-18T08:10:42.321Z,3.03
2018-06-18T08:13:12.068Z,3.58
2018-06-18T08:15:42.270Z,2.50
2018-06-18T08:18:11.509Z,2.98
2018-06-18T08:20:40.661Z,2.80
2018-06-18T08:23:10.321Z,3.37
2018-06-18T08:25:39.430Z,3.00
2018-06-18T08:28:08.542Z,2.63
2018-06-18T08:30:37.731Z,3.00
2018-06-18T08:33:07.023Z,3.20
2018-06-18T08:35:36.673Z,2.80
2018-06-18T08:38:06.147Z,2.60
2018-06-18T08:40:35.291Z,3.30
2018-06-18T08:43:04.406Z,3.20
2018-06-18T08:45:33.671Z,3.23
2018-06-18T08:48:02.771Z,3.47
2018-06-18T08:50:38.231Z,3.03
2018-06-18T08:53:12.525Z,3.83
2018-06-18T08:55:47.087Z,3.07
2018-06-18T08:58:22.553Z,2.90
2018-06-18T09:00:57.113Z,3.40
2018-06-18T09:03:26.993Z,2.63
2018-06-18T09:06:01.489Z,2.50
2018-06-18T09:08:39.943Z,3.00
2018-06-18T09:11:09.529Z,3.02
2018-06-18T09:13:38.853Z,2.77
2018-06-18T09:16:08.262Z,2.83
2018-06-18T09:18:37.479Z,2.90
2018-06-18T09:21:06.581Z,3.67
2018-06-18T09:23:35.857Z,2.70
2018-06-18T09:26:05.546Z,2.80
2018-06-18T09:28:35.761Z,3.03
2018-06-18T09:31:04.876Z,2.87
2018-06-18T09:33:34.293Z,3.50
2018-06-18T09:36:04.053Z,3.10
2018-06-18T09:38:33.780Z,3.20
2018-06-18T09:41:03.714Z,3.20
2018-06-18T09:43:33.289Z,2.80
2018-06-18T09:46:02.623Z,2.80
2018-06-18T09:48:37.025Z,2.80
2018-06-18T09:51:11.741Z,3.47
2018-06-18T09:53:46.341Z,2.77
2018-06-18T09:56:20.788Z,3.10
2018-06-18T09:58:55.498Z,2.70
2018-06-18T10:01:31.736Z,3.20
2018-06-18T10:04:02.326Z,2.73
2018-06-18T10:06:33.559Z,2.80
2018-06-18T10:09:05.604Z,2.90
2018-06-18T10:11:35.585Z,3.13
2018-06-18T10:14:08.009Z,2.77
2018-06-18T10:16:37.344Z,3.07
2018-06-18T10:19:06.509Z,3.30
2018-06-18T10:21:35.827Z,3.00
2018-06-18T10:24:06.493Z,2.73
2018-06-18T10:26:35.930Z,3.07
2018-06-18T10:29:06.161Z,3.43
2018-06-18T10:31:36.398Z,3.37
2018-06-18T10:34:11.734Z,2.75
2018-06-18T10:36:46.454Z,3.30
2018-06-18T10:39:20.872Z,2.70
2018-06-18T10:41:55.212Z,3.77
2018-06-18T10:44:24.405Z,3.17
2018-06-18T10:46:53.625Z,3.12
2018-06-18T10:49:22.760Z,3.05
2018-06-18T10:51:52.372Z,3.10
2018-06-18T10:54:21.606Z,3.23
2018-06-18T10:56:51.096Z,3.03
2018-06-18T10:59:21.143Z,3.20
2018-06-18T11:01:50.441Z,2.80
2018-06-18T11:04:25.142Z,3.10
2018-06-18T11:06:54.430Z,3.33
2018-06-18T11:09:23.629Z,2.98
2018-06-18T11:11:53.185Z,3.83
2018-06-18T11:14:22.335Z,3.42
2018-06-18T11:16:57.164Z,3.30
2018-06-18T11:19:31.453Z,2.73
2018-06-18T11:22:07.536Z,3.23
2018-06-18T11:24:42.088Z,3.63
2018-06-18T11:27:12.436Z,3.15
2018-06-18T11:29:41.543Z,3.63
2018-06-18T11:32:14.723Z,3.62
2018-06-18T11:34:44.806Z,3.40
2018-06-18T11:37:15.241Z,3.25
2018-06-18T11:39:44.880Z,3.30
2018-06-18T11:42:14.671Z,2.83
2018-06-18T11:44:44.289Z,3.70
2018-06-18T11:47:13.649Z,3.70
2018-06-18T11:49:42.669Z,3.30
2018-06-18T11:52:16.524Z,3.37
2018-06-18T11:54:45.665Z,3.60
2018-06-18T11:57:14.846Z,4.05
2018-06-18T11:59:49.528Z,4.00
2018-06-18T12:02:23.942Z,3.40
2018-06-18T12:04:58.564Z,3.03
2018-06-18T12:07:33.085Z,3.20
2018-06-18T12:10:02.577Z,3.43
2018-06-18T12:12:31.838Z,3.60
2018-06-18T12:15:01.042Z,3.40
2018-06-18T12:17:30.238Z,3.57
2018-06-18T12:19:59.454Z,3.50
2018-06-18T12:22:28.641Z,3.60
2018-06-18T12:24:57.932Z,4.70
2018-06-18T12:27:29.769Z,3.13
2018-06-18T12:29:58.950Z,3.30
2018-06-18T12:32:28.058Z,3.67
2018-06-18T12:34:57.202Z,3.63
2018-06-18T12:37:26.399Z,3.00
2018-06-18T12:39:55.684Z,3.17
2018-06-18T12:42:24.774Z,2.60
2018-06-18T12:44:59.364Z,3.30
2018-06-18T12:47:33.812Z,2.50
2018-06-18T12:50:08.241Z,3.10
2018-06-18T12:52:43.091Z,2.77
2018-06-18T12:55:17.403Z,2.87
2018-06-18T12:57:46.602Z,3.00
2018-06-18T13:00:15.809Z,2.40
2018-06-18T13:02:47.986Z,2.63
2018-06-18T13:05:17.147Z,2.87
2018-06-18T13:07:46.310Z,2.27
2018-06-18T13:10:15.735Z,2.87
2018-06-18T13:12:44.962Z,2.60
2018-06-18T13:15:14.191Z,2.37
2018-06-18T13:17:43.287Z,2.63
2018-06-18T13:20:12.445Z,2.47
2018-06-18T13:22:41.838Z,2.30
2018-06-18T13:25:11.117Z,2.72
2018-06-18T13:28:44.874Z,2.83
2018-06-18T13:31:14.043Z,2.77
2018-06-18T13:33:43.109Z,2.63
2018-06-18T13:36:12.337Z,3.10
2018-06-18T13:38:46.872Z,2.70
2018-06-18T13:41:21.658Z,3.20
2018-06-18T13:45:58.463Z,2.90
2018-06-18T13:48:32.836Z,2.80
2018-06-18T13:51:02.224Z,2.60
2018-06-18T13:53:31.347Z,2.87
2018-06-18T13:56:00.533Z,2.43
2018-06-18T13:58:30.069Z,3.20
2018-06-18T14:00:59.402Z,3.07
2018-06-18T14:03:29.026Z,3.00
2018-06-18T14:05:58.247Z,3.03
2018-06-18T14:08:27.517Z,2.60
2018-06-18T14:10:56.949Z,2.90
2018-06-18T14:13:26.116Z,2.90
2018-06-18T14:15:55.320Z,2.77
2018-06-18T14:18:24.507Z,3.27
2018-06-18T14:20:53.745Z,3.27
2018-06-18T14:23:22.911Z,2.40
2018-06-18T14:25:52.308Z,2.80
2018-06-18T14:28:21.721Z,3.00
2018-06-18T14:30:56.234Z,2.60
2018-06-18T14:33:36.392Z,3.93
2018-06-18T14:36:10.918Z,2.50
2018-06-18T14:38:45.673Z,2.73
2018-06-18T14:41:14.766Z,2.70
2018-06-18T14:43:43.937Z,2.80
2018-06-18T14:46:13.766Z,2.70
2018-06-18T14:48:42.877Z,2.87
2018-06-18T14:51:12.094Z,2.55
2018-06-18T14:53:42.451Z,3.22
2018-06-18T14:56:32.378Z,2.77
2018-06-18T14:59:36.597Z,3.63
2018-06-18T15:02:06.319Z,3.10
2018-06-18T15:04:35.603Z,2.90
2018-06-18T15:07:04.745Z,3.77
2018-06-18T15:09:33.888Z,3.00
2018-06-18T15:12:02.960Z,3.20
2018-06-18T15:14:32.157Z,2.40
2018-06-18T15:17:01.256Z,2.67
2018-06-18T15:19:30.408Z,3.20
2018-06-18T15:21:59.924Z,2.93
2018-06-18T15:24:48.469Z,2.57
2018-06-18T15:27:17.652Z,2.65
2018-06-18T15:29:46.821Z,2.77
2018-06-18T15:32:16.140Z,3.15
2018-06-18T15:34:45.278Z,2.63
2018-06-18T15:37:14.535Z,2.77
2018-06-18T15:39:43.701Z,2.60
2018-06-18T15:42:12.799Z,2.92
2018-06-18T15:44:41.883Z,3.30
2018-06-18T15:47:11.635Z,3.15
2018-06-18T15:49:40.806Z,2.90
2018-06-18T15:52:09.971Z,3.23
2018-06-18T15:54:39.942Z,2.60
2018-06-18T15:57:09.269Z,2.63
2018-06-18T15:59:39.259Z,2.80
2018-06-18T16:02:08.475Z,2.58
2018-06-18T16:04:38.345Z,2.47
2018-06-18T16:07:07.482Z,2.50
2018-06-18T16:09:36.678Z,2.60
2018-06-18T16:12:06.386Z,2.50
2018-06-18T16:14:35.649Z,2.50
2018-06-18T16:17:05.889Z,2.00
2018-06-18T16:19:36.213Z,2.37
2018-06-18T16:22:07.209Z,2.46
2018-06-18T16:24:36.423Z,2.40
2018-06-18T16:27:05.941Z,2.33
2018-06-18T16:29:35.206Z,3.10
2018-06-18T16:32:04.389Z,2.60
2018-06-18T16:34:33.731Z,2.60
2018-06-18T16:37:02.860Z,2.37
2018-06-18T16:39:31.972Z,2.80
2018-06-18T16:42:01.173Z,2.60
2018-06-18T16:44:30.335Z,2.87
2018-06-18T16:46:59.489Z,2.50
2018-06-18T16:49:28.565Z,2.80
2018-06-18T16:51:57.833Z,2.50
2018-06-18T16:54:26.950Z,3.50
2018-06-18T16:56:56.137Z,2.70
2018-06-18T16:59:25.426Z,2.47
2018-06-18T17:01:54.525Z,2.03
2018-06-18T17:04:23.590Z,2.42
2018-06-18T17:06:52.810Z,2.50
2018-06-18T17:09:21.935Z,2.60
2018-06-18T17:11:51.103Z,2.27
2018-06-18T17:14:20.366Z,3.00
2018-06-18T17:16:49.402Z,3.00
2018-06-18T17:19:18.528Z,2.52
2018-06-18T17:21:47.604Z,2.60
2018-06-18T17:24:16.706Z,2.45
2018-06-18T17:26:46.824Z,2.40
2018-06-18T17:29:16.022Z,2.30
2018-06-18T17:31:45.353Z,2.20
2018-06-18T17:34:14.535Z,2.47
2018-06-18T17:36:43.903Z,2.63
2018-06-18T17:39:13.778Z,2.27
2018-06-18T17:41:43.923Z,2.60
2018-06-18T17:44:13.080Z,2.50
2018-06-18T17:46:42.866Z,2.10
2018-06-18T17:49:12.050Z,2.98
2018-06-18T17:51:41.204Z,2.50
2018-06-18T17:54:10.484Z,3.02
2018-06-18T17:56:39.608Z,2.73
2018-06-18T17:59:09.119Z,2.60
2018-06-18T18:01:38.543Z,2.70
2018-06-18T18:04:08.616Z,2.70
2018-06-18T18:06:37.848Z,2.70
2018-06-18T18:09:08.453Z,2.80
2018-06-18T18:11:37.690Z,2.63
2018-06-18T18:14:07.190Z,2.50
2018-06-18T18:16:36.445Z,2.40
2018-06-18T18:19:06.009Z,2.17
2018-06-18T18:21:35.913Z,2.60
2018-06-18T18:24:05.156Z,2.20
2018-06-18T18:26:34.418Z,2.63
2018-06-18T18:29:03.584Z,2.80
2018-06-18T18:31:32.787Z,2.80
2018-06-18T18:34:01.991Z,1.97
2018-06-18T18:36:31.218Z,2.40
2018-06-18T18:39:00.399Z,2.53
2018-06-18T18:41:29.707Z,3.10
2018-06-18T18:43:58.812Z,2.63
2018-06-18T18:46:27.927Z,2.55
2018-06-18T18:48:57.031Z,2.70
2018-06-18T18:51:26.364Z,2.50
2018-06-18T18:53:55.569Z,2.77
2018-06-18T18:56:35.936Z,2.33
2018-06-18T18:59:30.120Z,2.73
2018-06-18T19:01:59.678Z,2.50
2018-06-18T19:04:36.007Z,2.60
2018-06-18T19:07:06.561Z,2.57
2018-06-18T19:09:39.212Z,3.00
2018-06-18T19:12:08.405Z,2.80
2018-06-18T19:14:37.511Z,3.27
2018-06-18T19:17:07.000Z,3.07
2018-06-18T19:19:43.122Z,2.90
2018-06-18T19:22:12.982Z,2.47
2018-06-18T19:24:42.690Z,2.77
2018-06-18T19:27:11.910Z,2.73
2018-06-18T19:29:41.201Z,2.90
2018-06-18T19:32:10.365Z,2.62
2018-06-18T19:34:39.522Z,2.57
2018-06-18T19:37:08.705Z,2.77
2018-06-18T19:39:41.595Z,2.77
2018-06-18T19:42:10.763Z,2.72
2018-06-18T19:44:39.848Z,2.50
2018-06-18T19:47:15.961Z,2.60
2018-06-18T19:49:45.074Z,2.53
2018-06-18T19:52:14.210Z,2.63
2018-06-18T19:54:48.471Z,2.57
2018-06-18T19:57:17.679Z,2.73
2018-06-18T19:59:46.869Z,3.17
2018-06-18T20:02:16.101Z,2.70
2018-06-18T20:04:45.313Z,2.90
2018-06-18T20:07:15.151Z,3.07
2018-06-18T20:09:44.749Z,2.90
2018-06-18T20:12:13.905Z,3.12
2018-06-18T20:14:43.050Z,2.90
2018-06-18T20:17:12.505Z,3.30
2018-06-18T20:19:41.654Z,2.90
2018-06-18T20:22:10.927Z,3.42
2018-06-18T20:24:41.674Z,2.93
2018-06-18T20:27:10.783Z,3.00
2018-06-18T20:29:39.965Z,3.27
2018-06-18T20:32:09.767Z,3.47
2018-06-18T20:34:39.291Z,3.20
2018-06-18T20:37:08.410Z,3.03
2018-06-18T20:39:37.945Z,2.90
2018-06-18T20:42:07.091Z,3.10
2018-06-18T20:44:36.241Z,3.40
2018-06-18T20:47:05.770Z,3.03
2018-06-18T20:49:34.963Z,3.40
2018-06-18T20:52:17.000Z,3.10
2018-06-18T20:54:46.250Z,2.80
2018-06-18T20:57:15.495Z,3.30
2018-06-18T20:59:44.648Z,3.60
2018-06-18T21:02:13.815Z,3.10
2018-06-18T21:04:42.896Z,3.83
2018-06-18T21:07:12.071Z,3.27
2018-06-18T21:09:41.665Z,3.10
2018-06-18T21:12:10.771Z,3.70
2018-06-18T21:14:39.899Z,2.80
2018-06-18T21:17:09.089Z,3.80
2018-06-18T21:19:38.242Z,3.27
2018-06-18T21:22:07.768Z,3.45
2018-06-18T21:24:36.824Z,3.33
2018-06-18T21:27:06.090Z,3.30
2018-06-18T21:29:35.199Z,3.70
2018-06-18T21:34:44.978Z,3.40
2018-06-18T21:37:14.180Z,3.40
2018-06-18T21:39:43.398Z,3.07
2018-06-18T21:42:12.558Z,3.52
2018-06-18T21:44:46.708Z,3.40
2018-06-18T21:47:16.040Z,3.23
2018-06-18T21:49:45.113Z,3.23
2018-06-18T21:52:14.298Z,3.30
2018-06-18T21:54:43.487Z,3.33
2018-06-18T21:57:12.627Z,3.60
2018-06-18T21:59:41.706Z,3.50
2018-06-18T22:02:10.857Z,3.55
2018-06-18T22:04:39.946Z,4.30
2018-06-18T22:07:09.058Z,3.93
2018-06-18T22:09:38.145Z,3.93
2018-06-18T22:12:07.245Z,4.00
2018-06-18T22:14:36.359Z,3.73
2018-06-18T22:17:06.129Z,3.90
2018-06-18T22:19:35.332Z,3.83
2018-06-18T22:22:04.643Z,3.50
2018-06-18T22:24:33.789Z,3.30
2018-06-18T22:27:03.042Z,3.47
2018-06-18T22:29:32.225Z,3.87
2018-06-18T22:32:01.353Z,4.10
2018-06-18T22:34:30.455Z,3.67
2018-06-18T22:36:59.581Z,3.47
2018-06-18T22:39:28.729Z,3.47
2018-06-18T22:41:57.917Z,4.33
2018-06-18T22:44:27.059Z,4.07
2018-06-18T22:46:56.177Z,3.60
2018-06-18T22:49:25.321Z,3.70
2018-06-18T22:51:54.422Z,3.53
2018-06-18T22:54:23.606Z,3.90
2018-06-18T22:56:52.685Z,3.70
2018-06-18T22:59:21.782Z,3.50
2018-06-18T23:01:51.083Z,3.83
2018-06-18T23:04:20.296Z,3.95
2018-06-18T23:06:49.538Z,3.80
2018-06-18T23:09:18.677Z,4.20
2018-06-18T23:11:47.802Z,4.27
2018-06-18T23:14:19.830Z,3.60
2018-06-18T23:16:48.942Z,4.30
2018-06-18T23:19:18.085Z,4.10
2018-06-18T23:21:47.165Z,3.72
2018-06-18T23:24:16.313Z,4.10
2018-06-18T23:26:45.747Z,4.20
2018-06-18T23:29:16.578Z,4.30
2018-06-18T23:31:45.852Z,4.23
2018-06-18T23:34:14.966Z,4.40
2018-06-18T23:36:44.042Z,4.30
2018-06-18T23:39:13.539Z,4.15
2018-06-18T23:41:46.442Z,4.77
2018-06-18T23:44:15.637Z,4.83
2018-06-18T23:46:44.833Z,4.63
2018-06-18T23:49:13.912Z,5.37
2018-06-18T23:51:43.033Z,4.70
2018-06-18T23:54:12.233Z,4.22
